createdAt,value
2023-02-04T00:00:38.872Z,9.73
2023-02-04T00:04:01.368Z,7.50
2023-02-04T00:07:03.656Z,7.90
2023-02-04T00:10:06.869Z,6.33
2023-02-04T00:13:09.034Z,7.93
2023-02-04T00:16:11.464Z,7.30
2023-02-04T00:19:13.567Z,7.33
2023-02-04T00:22:15.854Z,5.77
2023-02-04T00:25:18.025Z,5.60
2023-02-04T00:28:20.497Z,5.87
2023-02-04T00:31:22.538Z,5.67
2023-02-04T00:34:24.930Z,5.73
2023-02-04T00:37:26.929Z,4.97
2023-02-04T00:40:29.579Z,5.93
2023-02-04T00:43:31.809Z,4.23
2023-02-04T00:46:34.114Z,3.97
2023-02-04T00:49:36.138Z,4.27
2023-02-04T00:52:38.894Z,3.70
2023-02-04T00:55:40.925Z,3.37
2023-02-04T00:58:43.229Z,3.40
2023-02-04T01:01:45.255Z,2.53
2023-02-04T01:04:47.696Z,2.90
2023-02-04T01:07:49.828Z,2.40
2023-02-04T01:10:52.137Z,2.57
2023-02-04T01:13:54.516Z,2.03
2023-02-04T01:16:56.886Z,1.67
2023-02-04T01:19:58.898Z,1.70
2023-02-04T01:23:01.234Z,2.40
2023-02-04T01:26:03.521Z,2.10
2023-02-04T01:29:06.358Z,2.13
2023-02-04T01:32:08.369Z,2.40
2023-02-04T01:35:10.916Z,2.63
2023-02-04T01:38:13.145Z,2.60
2023-02-04T01:41:16.907Z,2.80
2023-02-04T01:44:19.038Z,2.90
2023-02-04T01:47:22.057Z,3.23
2023-02-04T01:50:24.050Z,2.10
2023-02-04T01:53:26.898Z,2.27
2023-02-04T01:56:31.171Z,2.97
2023-02-04T01:59:34.132Z,2.73
2023-02-04T02:02:40.414Z,2.97
2023-02-04T02:05:55.382Z,3.10
2023-02-04T02:08:58.370Z,2.23
2023-02-04T02:12:03.317Z,2.80
2023-02-04T02:15:05.841Z,2.43
2023-02-04T02:18:09.055Z,2.60
2023-02-04T02:21:15.040Z,2.27
2023-02-04T02:24:37.205Z,2.60
2023-02-04T02:27:39.475Z,2.80
2023-02-04T02:30:45.537Z,2.90
2023-02-04T02:33:48.311Z,3.40
2023-02-04T02:36:51.012Z,4.00
2023-02-04T02:39:53.394Z,4.47
2023-02-04T02:42:55.864Z,4.50
2023-02-04T02:46:01.039Z,4.93
2023-02-04T02:49:03.516Z,5.57
2023-02-04T02:52:05.556Z,5.27
2023-02-04T02:55:15.518Z,5.27
2023-02-04T02:58:25.618Z,4.83
2023-02-04T03:01:27.935Z,6.00
2023-02-04T03:04:33.881Z,5.67
2023-02-04T03:07:36.568Z,5.77
2023-02-04T03:10:38.748Z,5.30
2023-02-04T03:13:41.455Z,3.87
2023-02-04T03:16:44.473Z,3.97
2023-02-04T03:19:46.845Z,5.30
2023-02-04T03:22:48.840Z,4.53
2023-02-04T03:25:52.409Z,4.77
2023-02-04T03:28:55.016Z,3.70
2023-02-04T03:32:00.134Z,4.20
2023-02-04T03:35:02.313Z,4.33
2023-02-04T03:38:04.670Z,3.10
2023-02-04T03:41:07.649Z,3.17
2023-02-04T03:44:10.052Z,3.33
2023-02-04T03:47:12.052Z,3.30
2023-02-04T03:50:14.647Z,2.90
2023-02-04T03:53:16.633Z,3.00
2023-02-04T03:56:18.977Z,3.77
2023-02-04T03:59:21.006Z,3.30
2023-02-04T04:02:23.315Z,3.37
2023-02-04T04:05:26.483Z,3.67
2023-02-04T04:08:28.795Z,2.97
2023-02-04T04:11:31.470Z,3.27
2023-02-04T04:14:33.775Z,3.03
2023-02-04T04:17:35.943Z,3.00
2023-02-04T04:20:38.457Z,2.47
2023-02-04T04:23:40.531Z,3.40
2023-02-04T04:26:42.806Z,3.10
2023-02-04T04:29:44.812Z,3.60
2023-02-04T04:32:47.113Z,3.57
2023-02-04T04:35:49.204Z,3.10
2023-02-04T04:38:51.470Z,3.27
2023-02-04T04:41:53.494Z,3.40
2023-02-04T04:44:55.782Z,3.50
2023-02-04T04:47:57.801Z,3.17
2023-02-04T04:51:00.090Z,3.10
2023-02-04T04:54:02.238Z,3.30
2023-02-04T04:57:04.527Z,3.13
2023-02-04T05:00:07.699Z,3.30
2023-02-04T05:03:10.023Z,2.70
2023-02-04T05:06:13.104Z,3.43
2023-02-04T05:09:17.515Z,3.13
2023-02-04T05:12:19.488Z,2.50
2023-02-04T05:15:21.779Z,3.40
2023-02-04T05:18:23.989Z,3.37
2023-02-04T05:21:26.427Z,3.53
2023-02-04T05:24:28.734Z,3.23
2023-02-04T05:27:31.046Z,3.40
2023-02-04T05:30:33.343Z,3.40
2023-02-04T05:33:35.822Z,4.00
2023-02-04T05:36:37.804Z,3.23
2023-02-04T05:39:40.146Z,3.37
2023-02-04T05:42:42.209Z,3.70
2023-02-04T05:45:44.506Z,3.53
2023-02-04T05:48:46.608Z,3.20
2023-02-04T05:51:48.948Z,3.60
2023-02-04T05:54:50.921Z,3.13
2023-02-04T05:57:53.196Z,3.13
2023-02-04T06:00:55.269Z,3.27
2023-02-04T06:03:57.526Z,3.23
2023-02-04T06:06:59.692Z,3.47
2023-02-04T06:10:01.991Z,2.60
2023-02-04T06:13:04.035Z,3.10
2023-02-04T06:16:06.730Z,3.10
2023-02-04T06:19:09.760Z,2.97
2023-02-04T06:22:12.037Z,2.80
2023-02-04T06:25:14.078Z,2.77
2023-02-04T06:28:16.773Z,3.33
2023-02-04T06:31:18.951Z,3.83
2023-02-04T06:34:21.438Z,3.50
2023-02-04T06:37:24.483Z,3.10
2023-02-04T06:40:26.854Z,3.63
2023-02-04T06:43:28.912Z,2.73
2023-02-04T06:46:31.344Z,2.53
2023-02-04T06:49:33.334Z,3.00
2023-02-04T06:52:35.682Z,3.10
2023-02-04T06:55:37.757Z,3.10
2023-02-04T06:58:40.128Z,2.50
2023-02-04T07:01:42.233Z,2.67
2023-02-04T07:04:45.580Z,2.60
2023-02-04T07:07:48.965Z,2.40
2023-02-04T07:10:51.359Z,2.40
2023-02-04T07:13:53.413Z,2.73
2023-02-04T07:16:58.165Z,2.40
2023-02-04T07:20:00.279Z,1.90
2023-02-04T07:23:02.587Z,1.57
2023-02-04T07:26:04.623Z,2.10
2023-02-04T07:29:08.522Z,1.47
2023-02-04T07:32:16.491Z,2.00
2023-02-04T07:35:18.834Z,1.40
2023-02-04T07:38:20.818Z,1.60
2023-02-04T07:41:23.164Z,1.33
2023-02-04T07:44:25.331Z,2.03
2023-02-04T07:47:27.628Z,1.60
2023-02-04T07:50:29.821Z,1.90
2023-02-04T07:53:32.268Z,1.53
2023-02-04T07:56:34.407Z,1.20
2023-02-04T07:59:36.712Z,1.47
2023-02-04T08:02:38.776Z,1.10
2023-02-04T08:05:41.130Z,1.33
2023-02-04T08:08:43.146Z,1.17
2023-02-04T08:11:45.489Z,1.40
2023-02-04T08:14:47.502Z,1.40
2023-02-04T08:17:49.731Z,1.87
2023-02-04T08:20:52.054Z,1.30
2023-02-04T08:23:54.342Z,1.60
2023-02-04T08:26:56.583Z,1.80
2023-02-04T08:29:59.217Z,2.03
2023-02-04T08:33:01.266Z,1.90
2023-02-04T08:36:03.849Z,1.90
2023-02-04T08:39:05.884Z,1.70
2023-02-04T08:42:08.245Z,1.20
2023-02-04T08:45:10.375Z,1.50
2023-02-04T08:48:12.698Z,1.30
2023-02-04T08:51:15.792Z,1.33
2023-02-04T08:54:18.469Z,1.47
2023-02-04T08:57:20.461Z,1.10
2023-02-04T09:00:22.901Z,1.40
2023-02-04T09:03:24.877Z,1.30
2023-02-04T09:06:27.209Z,1.40
2023-02-04T09:09:29.233Z,1.53
2023-02-04T09:12:31.576Z,1.50
2023-02-04T09:15:33.556Z,1.50
2023-02-04T09:18:35.881Z,1.90
2023-02-04T09:21:37.978Z,1.87
2023-02-04T09:24:40.253Z,1.37
2023-02-04T09:27:42.396Z,1.93
2023-02-04T09:30:47.387Z,2.50
2023-02-04T09:33:49.593Z,3.47
2023-02-04T09:36:52.088Z,2.03
2023-02-04T09:39:54.802Z,1.70
2023-02-04T09:42:57.554Z,3.50
2023-02-04T09:45:59.972Z,2.00
2023-02-04T09:49:03.624Z,2.23
2023-02-04T09:52:12.348Z,1.87
2023-02-04T09:55:17.392Z,1.30
2023-02-04T09:58:22.952Z,1.57
2023-02-04T10:01:28.686Z,2.13
2023-02-04T10:04:31.089Z,1.50
2023-02-04T10:07:33.510Z,4.40
2023-02-04T10:10:35.535Z,1.50
2023-02-04T10:13:50.389Z,1.37
2023-02-04T10:17:00.493Z,1.93
2023-02-04T10:20:22.745Z,1.10
2023-02-04T10:23:24.729Z,1.73
2023-02-04T10:26:30.039Z,1.80
2023-02-04T10:29:34.558Z,1.70
2023-02-04T10:32:39.473Z,1.47
2023-02-04T10:35:46.571Z,1.23
2023-02-04T10:39:00.676Z,2.73
2023-02-04T10:42:02.663Z,1.80
2023-02-04T10:45:07.220Z,1.63
2023-02-04T10:48:21.861Z,1.70
2023-02-04T10:51:27.636Z,1.63
2023-02-04T10:54:37.584Z,1.63
2023-02-04T10:57:41.947Z,2.60
2023-02-04T11:00:44.072Z,2.60
2023-02-04T11:03:48.339Z,1.80
2023-02-04T11:06:52.822Z,2.23
2023-02-04T11:09:55.281Z,2.20
2023-02-04T11:12:57.260Z,3.13
2023-02-04T11:16:12.040Z,2.53
2023-02-04T11:19:14.677Z,2.33
2023-02-04T11:22:44.537Z,1.40
2023-02-04T11:25:46.629Z,1.73
2023-02-04T11:29:01.164Z,1.63
2023-02-04T11:32:23.931Z,1.90
2023-02-04T11:35:31.785Z,1.60
2023-02-04T11:38:34.394Z,2.13
2023-02-04T11:41:36.892Z,1.83
2023-02-04T11:44:38.882Z,2.57
2023-02-04T11:47:42.321Z,1.40
2023-02-04T11:50:58.709Z,1.30
2023-02-04T11:54:01.067Z,1.40
2023-02-04T11:57:03.766Z,1.40
2023-02-04T12:00:07.371Z,1.13
2023-02-04T12:03:21.306Z,1.67
2023-02-04T12:06:33.091Z,1.50
2023-02-04T12:09:35.154Z,1.50
2023-02-04T12:12:43.699Z,1.10
2023-02-04T12:16:01.027Z,1.40
2023-02-04T12:19:03.356Z,2.10
2023-02-04T12:22:05.346Z,1.23
2023-02-04T12:25:08.116Z,2.27
2023-02-04T12:28:10.161Z,2.57
2023-02-04T12:31:12.656Z,3.20
2023-02-04T12:34:16.762Z,1.90
2023-02-04T12:37:19.092Z,1.50
2023-02-04T12:40:22.090Z,2.30
2023-02-04T12:43:27.833Z,3.60
2023-02-04T12:46:30.492Z,1.60
2023-02-04T12:49:32.857Z,2.73
2023-02-04T12:52:35.061Z,1.47
2023-02-04T12:55:37.709Z,1.50
2023-02-04T12:58:40.161Z,1.20
2023-02-04T13:01:42.464Z,1.00
2023-02-04T13:04:44.565Z,1.20
2023-02-04T13:07:46.830Z,0.90
2023-02-04T13:10:51.949Z,1.00
2023-02-04T13:13:54.341Z,1.93
2023-02-04T13:16:56.332Z,1.23
2023-02-04T13:19:58.810Z,1.10
2023-02-04T13:23:00.794Z,1.43
2023-02-04T13:26:03.102Z,0.80
2023-02-04T13:29:05.125Z,1.13
2023-02-04T13:32:07.404Z,1.73
2023-02-04T13:35:09.744Z,1.30
2023-02-04T13:38:11.981Z,1.83
2023-02-04T13:41:14.071Z,1.83
2023-02-04T13:44:16.365Z,1.10
2023-02-04T13:47:18.357Z,1.20
2023-02-04T13:50:20.634Z,0.90
2023-02-04T13:53:22.807Z,1.67
2023-02-04T13:56:25.309Z,2.33
2023-02-04T13:59:27.292Z,1.90
2023-02-04T14:02:29.624Z,2.90
2023-02-04T14:05:31.935Z,2.63
2023-02-04T14:08:34.255Z,2.00
2023-02-04T14:11:36.230Z,3.37
2023-02-04T14:14:38.711Z,2.60
2023-02-04T14:17:40.765Z,2.20
2023-02-04T14:20:43.999Z,4.80
2023-02-04T14:23:45.954Z,5.23
2023-02-04T14:26:48.341Z,2.30
2023-02-04T14:29:50.343Z,3.60
2023-02-04T14:32:52.752Z,3.97
2023-02-04T14:35:54.717Z,2.77
2023-02-04T14:38:57.078Z,4.97
2023-02-04T14:41:59.106Z,3.67
2023-02-04T14:45:08.898Z,4.13
2023-02-04T14:48:10.893Z,9.00
2023-02-04T14:51:16.313Z,4.53
2023-02-04T14:54:18.290Z,3.97
2023-02-04T14:57:23.524Z,2.83
2023-02-04T15:00:25.688Z,5.30
2023-02-04T15:03:27.981Z,4.10
2023-02-04T15:06:30.025Z,4.37
2023-02-04T15:09:32.313Z,3.77
2023-02-04T15:12:41.035Z,5.00
2023-02-04T15:15:43.297Z,4.57
2023-02-04T15:18:45.290Z,3.07
2023-02-04T15:21:54.238Z,3.23
2023-02-04T15:24:56.384Z,3.60
2023-02-04T15:27:58.773Z,3.07
2023-02-04T15:31:02.041Z,3.50
2023-02-04T15:34:06.061Z,2.90
2023-02-04T15:37:11.012Z,3.63
2023-02-04T15:40:13.321Z,3.20
2023-02-04T15:43:15.316Z,3.23
2023-02-04T15:46:17.623Z,3.60
2023-02-04T15:49:19.636Z,4.50
2023-02-04T15:52:25.594Z,3.97
2023-02-04T15:55:27.836Z,4.97
2023-02-04T15:58:30.970Z,8.80
2023-02-04T16:01:33.111Z,6.10
2023-02-04T16:04:36.678Z,5.30
2023-02-04T16:07:38.647Z,4.70
2023-02-04T16:10:41.005Z,8.53
2023-02-04T16:13:43.057Z,9.40
2023-02-04T16:16:45.391Z,7.90
2023-02-04T16:19:47.511Z,9.03
2023-02-04T16:22:50.259Z,3.60
2023-02-04T16:25:52.291Z,5.17
2023-02-04T16:28:55.885Z,4.07
2023-02-04T16:31:58.086Z,3.53
2023-02-04T16:35:02.345Z,3.43
2023-02-04T16:38:04.333Z,3.57
2023-02-04T16:41:08.110Z,2.83
2023-02-04T16:44:10.162Z,2.70
2023-02-04T16:47:12.578Z,3.60
2023-02-04T16:50:14.766Z,3.03
2023-02-04T16:53:17.076Z,2.90
2023-02-04T16:56:19.146Z,3.13
2023-02-04T16:59:21.948Z,3.40
2023-02-04T17:02:23.942Z,3.13
2023-02-04T17:05:26.315Z,2.77
2023-02-04T17:08:29.510Z,2.50
2023-02-04T17:11:32.041Z,2.70
2023-02-04T17:14:34.030Z,2.40
2023-02-04T17:17:36.285Z,2.73
2023-02-04T17:20:38.286Z,2.63
2023-02-04T17:23:41.004Z,3.20
2023-02-04T17:26:43.010Z,2.10
2023-02-04T17:29:45.349Z,2.30
2023-02-04T17:32:47.483Z,2.60
2023-02-04T17:35:51.111Z,2.10
2023-02-04T17:38:53.150Z,2.67
2023-02-04T17:41:55.450Z,2.70
2023-02-04T17:44:57.412Z,4.13
2023-02-04T17:48:00.086Z,3.20
2023-02-04T17:51:02.223Z,2.30
2023-02-04T17:54:04.715Z,4.00
2023-02-04T17:57:20.813Z,4.13
2023-02-04T18:00:25.245Z,3.60
2023-02-04T18:03:28.674Z,3.57
2023-02-04T18:06:31.532Z,3.27
2023-02-04T18:09:33.926Z,4.00
2023-02-04T18:12:36.827Z,3.07
2023-02-04T18:15:39.280Z,2.87
2023-02-04T18:18:41.734Z,2.63
2023-02-04T18:21:44.215Z,2.10
2023-02-04T18:24:48.777Z,2.23
2023-02-04T18:27:52.450Z,2.53
2023-02-04T18:30:58.812Z,3.20
2023-02-04T18:34:03.057Z,3.30
2023-02-04T18:37:29.472Z,2.17
2023-02-04T18:40:32.572Z,2.60
2023-02-04T18:43:38.294Z,2.53
2023-02-04T18:46:46.041Z,6.83
2023-02-04T18:49:48.305Z,2.87
2023-02-04T18:52:50.337Z,2.97
2023-02-04T18:55:58.117Z,2.87
2023-02-04T18:59:00.198Z,2.60
2023-02-04T19:02:17.176Z,2.80
2023-02-04T19:05:36.996Z,2.50
2023-02-04T19:08:44.669Z,2.73
2023-02-04T19:11:51.105Z,3.37
2023-02-04T19:14:53.463Z,3.20
2023-02-04T19:17:58.475Z,3.47
2023-02-04T19:21:25.905Z,6.10
2023-02-04T19:24:29.533Z,3.40
2023-02-04T19:27:36.271Z,3.40
2023-02-04T19:30:46.496Z,3.03
2023-02-04T19:33:50.733Z,3.50
2023-02-04T19:36:54.421Z,3.73
2023-02-04T19:39:56.807Z,4.20
2023-02-04T19:43:22.871Z,3.63
2023-02-04T19:46:29.604Z,3.33
2023-02-04T19:49:37.374Z,3.40
2023-02-04T19:52:50.077Z,3.50
2023-02-04T19:55:53.106Z,4.20
2023-02-04T19:58:57.535Z,7.10
2023-02-04T20:02:34.931Z,2.70
2023-02-04T20:05:37.471Z,4.00
2023-02-04T20:08:44.208Z,3.93
2023-02-04T20:12:05.814Z,3.40
2023-02-04T20:15:18.045Z,3.83
2023-02-04T20:18:22.898Z,4.00
2023-02-04T20:21:25.372Z,4.40
2023-02-04T20:24:35.855Z,5.97
2023-02-04T20:27:41.079Z,4.57
2023-02-04T20:30:43.910Z,4.40
2023-02-04T20:33:54.507Z,6.77
2023-02-04T20:36:56.742Z,5.87
2023-02-04T20:40:00.195Z,5.10
2023-02-04T20:43:21.680Z,5.93
2023-02-04T20:46:26.906Z,5.80
2023-02-04T20:49:39.854Z,4.37
2023-02-04T20:52:51.030Z,7.73
2023-02-04T20:56:05.108Z,4.77
2023-02-04T20:59:17.824Z,4.20
2023-02-04T21:02:23.413Z,4.60
2023-02-04T21:05:28.664Z,4.30
2023-02-04T21:08:40.413Z,4.10
2023-02-04T21:11:42.558Z,3.60
2023-02-04T21:14:45.732Z,3.30
2023-02-04T21:17:47.781Z,3.87
2023-02-04T21:20:58.466Z,3.97
2023-02-04T21:24:03.850Z,5.10
2023-02-04T21:27:07.075Z,4.40
2023-02-04T21:30:10.166Z,5.50
2023-02-04T21:33:16.915Z,9.70
2023-02-04T21:36:19.973Z,4.60
2023-02-04T21:39:22.575Z,4.60
2023-02-04T21:42:28.059Z,4.00
2023-02-04T21:45:33.523Z,3.87
2023-02-04T21:48:38.846Z,3.10
2023-02-04T21:51:41.943Z,4.10
2023-02-04T21:54:49.551Z,3.07
2023-02-04T21:57:52.522Z,4.50
2023-02-04T22:00:56.883Z,2.80
2023-02-04T22:03:59.433Z,3.20
2023-02-04T22:07:04.797Z,3.40
2023-02-04T22:10:13.084Z,2.57
2023-02-04T22:13:15.459Z,2.93
2023-02-04T22:16:18.186Z,3.10
2023-02-04T22:19:23.228Z,3.07
2023-02-04T22:22:25.861Z,3.67
2023-02-04T22:25:30.629Z,4.03
2023-02-04T22:28:33.465Z,3.57
2023-02-04T22:31:36.307Z,3.43
2023-02-04T22:34:39.817Z,3.33
2023-02-04T22:37:42.574Z,3.03
2023-02-04T22:40:48.322Z,3.10
2023-02-04T22:43:50.481Z,4.37
2023-02-04T22:46:53.668Z,2.93
2023-02-04T22:49:56.249Z,3.10
2023-02-04T22:52:59.099Z,3.40
2023-02-04T22:56:05.170Z,3.50
2023-02-04T22:59:09.878Z,3.57
2023-02-04T23:02:12.272Z,3.37
2023-02-04T23:05:14.846Z,3.93
2023-02-04T23:08:18.942Z,4.60
2023-02-04T23:11:25.777Z,3.63
2023-02-04T23:14:27.898Z,3.70
2023-02-04T23:17:30.211Z,3.80
2023-02-04T23:20:33.394Z,3.40
2023-02-04T23:23:36.070Z,3.27
2023-02-04T23:26:38.099Z,3.17
2023-02-04T23:29:40.434Z,4.73
2023-02-04T23:32:42.804Z,4.20
2023-02-04T23:35:45.145Z,4.30
2023-02-04T23:38:48.454Z,4.93
2023-02-04T23:41:51.059Z,4.57
2023-02-04T23:44:53.029Z,4.43
2023-02-04T23:47:55.290Z,3.80
2023-02-04T23:50:58.030Z,4.77
2023-02-04T23:54:00.436Z,4.57
2023-02-04T23:57:02.454Z,5.87
